createdAt,value
2018-12-16T00:00:23.371Z,-1.40
2018-12-16T00:02:51.762Z,-1.40
2018-12-16T00:05:21.132Z,-1.40
2018-12-16T00:07:49.466Z,-1.50
2018-12-16T00:10:17.774Z,-1.40
2018-12-16T00:12:46.190Z,-1.40
2018-12-16T00:15:14.571Z,-1.40
2018-12-16T00:17:42.863Z,-1.40
2018-12-16T00:20:11.263Z,-1.40
2018-12-16T00:22:39.630Z,-1.40
2018-12-16T00:25:08.283Z,-1.40
2018-12-16T00:27:36.630Z,-1.40
2018-12-16T00:30:06.322Z,-1.50
2018-12-16T00:32:34.729Z,-1.50
2018-12-16T00:35:03.270Z,-1.50
2018-12-16T00:37:31.601Z,-1.50
2018-12-16T00:39:59.939Z,-1.40
2018-12-16T00:42:28.341Z,-1.50
2018-12-16T00:44:56.670Z,-1.50
2018-12-16T00:47:24.994Z,-1.50
2018-12-16T00:49:53.252Z,-1.50
2018-12-16T00:52:21.549Z,-1.50
2018-12-16T00:54:49.856Z,-1.50
2018-12-16T00:57:18.143Z,-1.40
2018-12-16T00:59:46.422Z,-1.40
2018-12-16T01:02:20.120Z,-1.40
2018-12-16T01:04:48.443Z,-1.40
2018-12-16T01:07:16.845Z,-1.40
2018-12-16T01:09:45.127Z,-1.40
2018-12-16T01:12:13.628Z,-1.40
2018-12-16T01:14:42.002Z,-1.40
2018-12-16T01:17:10.261Z,-1.40
2018-12-16T01:19:38.652Z,-1.30
2018-12-16T01:22:07.080Z,-1.30
2018-12-16T01:24:35.558Z,-1.30
2018-12-16T01:27:04.028Z,-1.20
2018-12-16T01:29:32.386Z,-1.20
2018-12-16T01:32:00.655Z,-1.20
2018-12-16T01:34:29.010Z,-1.10
2018-12-16T01:36:57.342Z,-1.10
2018-12-16T01:39:25.694Z,-1.10
2018-12-16T01:41:54.157Z,-1.20
2018-12-16T01:44:22.473Z,-1.20
2018-12-16T01:46:50.790Z,-1.20
2018-12-16T01:49:19.435Z,-1.20
2018-12-16T01:51:47.836Z,-1.20
2018-12-16T01:54:16.152Z,-1.20
2018-12-16T01:56:44.457Z,-1.20
2018-12-16T01:59:12.780Z,-1.20
2018-12-16T02:01:45.317Z,-1.20
2018-12-16T02:04:13.717Z,-1.20
2018-12-16T02:06:42.139Z,-1.20
2018-12-16T02:09:12.048Z,-1.10
2018-12-16T02:11:40.347Z,-1.10
2018-12-16T02:14:08.885Z,-1.10
2018-12-16T02:16:37.353Z,-1.10
2018-12-16T02:19:05.654Z,-1.00
2018-12-16T02:21:33.982Z,-1.00
2018-12-16T02:24:02.292Z,-1.00
2018-12-16T02:26:30.602Z,-1.00
2018-12-16T02:28:58.898Z,-1.00
2018-12-16T02:31:27.215Z,-1.00
2018-12-16T02:33:55.526Z,-1.00
2018-12-16T02:36:23.835Z,-0.90
2018-12-16T02:38:52.174Z,-1.00
2018-12-16T02:41:20.555Z,-0.90
2018-12-16T02:43:48.863Z,-0.90
2018-12-16T02:46:17.176Z,-0.90
2018-12-16T02:48:45.484Z,-0.90
2018-12-16T02:51:14.447Z,-0.90
2018-12-16T02:53:42.981Z,-0.90
2018-12-16T02:56:11.546Z,-0.90
2018-12-16T02:58:43.098Z,-0.90
2018-12-16T03:01:11.396Z,-0.90
2018-12-16T03:03:39.747Z,-0.90
2018-12-16T03:06:08.030Z,-0.90
2018-12-16T03:08:36.351Z,-0.90
2018-12-16T03:11:04.815Z,-0.90
2018-12-16T03:13:33.161Z,-0.80
2018-12-16T03:16:01.464Z,-0.90
2018-12-16T03:18:29.772Z,-0.80
2018-12-16T03:20:58.067Z,-0.80
2018-12-16T03:23:26.416Z,-0.80
2018-12-16T03:25:54.726Z,-0.80
2018-12-16T03:28:23.020Z,-0.80
2018-12-16T03:30:51.424Z,-0.80
2018-12-16T03:33:19.775Z,-0.80
2018-12-16T03:35:48.164Z,-0.80
2018-12-16T03:38:16.480Z,-0.90
2018-12-16T03:40:44.982Z,-0.90
2018-12-16T03:43:13.316Z,-0.90
2018-12-16T03:45:41.661Z,-0.90
2018-12-16T03:48:09.960Z,-0.80
2018-12-16T03:50:38.276Z,-0.80
2018-12-16T03:53:06.666Z,-0.90
2018-12-16T03:55:35.017Z,-0.90
2018-12-16T03:58:03.397Z,-0.90
2018-12-16T04:00:31.719Z,-0.90
2018-12-16T04:03:00.035Z,-0.90
2018-12-16T04:05:28.378Z,-0.90
2018-12-16T04:07:56.667Z,-0.90
2018-12-16T04:10:24.998Z,-0.80
2018-12-16T04:12:53.395Z,-0.80
2018-12-16T04:15:21.690Z,-0.80
2018-12-16T04:17:50.043Z,-0.80
2018-12-16T04:20:18.349Z,-0.80
2018-12-16T04:22:46.596Z,-0.80
2018-12-16T04:25:14.903Z,-0.80
2018-12-16T04:27:43.282Z,-0.80
2018-12-16T04:30:11.603Z,-0.80
2018-12-16T04:32:39.965Z,-0.80
2018-12-16T04:35:08.274Z,-0.80
2018-12-16T04:37:36.827Z,-0.80
2018-12-16T04:40:05.827Z,-0.70
2018-12-16T04:42:34.182Z,-0.70
2018-12-16T04:45:02.475Z,-0.70
2018-12-16T04:47:30.800Z,-0.70
2018-12-16T04:49:59.133Z,-0.70
2018-12-16T04:52:27.416Z,-0.70
2018-12-16T04:54:55.699Z,-0.70
2018-12-16T04:57:24.000Z,-0.70
2018-12-16T04:59:52.314Z,-0.70
2018-12-16T05:02:20.599Z,-0.70
2018-12-16T05:04:48.909Z,-0.70
2018-12-16T05:07:17.275Z,-0.70
2018-12-16T05:09:45.613Z,-0.70
2018-12-16T05:12:13.911Z,-0.70
2018-12-16T05:14:42.208Z,-0.70
2018-12-16T05:17:10.485Z,-0.70
2018-12-16T05:19:38.810Z,-0.60
2018-12-16T05:22:07.102Z,-0.70
2018-12-16T05:24:35.404Z,-0.60
2018-12-16T05:27:03.671Z,-0.70
2018-12-16T05:29:31.976Z,-0.70
2018-12-16T05:32:00.252Z,-0.70
2018-12-16T05:34:28.524Z,-0.70
2018-12-16T05:36:56.814Z,-0.70
2018-12-16T05:39:25.154Z,-0.60
2018-12-16T05:41:53.467Z,-0.60
2018-12-16T05:44:21.784Z,-0.60
2018-12-16T05:46:50.066Z,-0.60
2018-12-16T05:49:18.367Z,-0.60
2018-12-16T05:51:46.685Z,-0.50
2018-12-16T05:54:15.009Z,-0.50
2018-12-16T05:56:43.355Z,-0.50
2018-12-16T05:59:11.595Z,-0.50
2018-12-16T06:01:39.902Z,-0.50
2018-12-16T06:04:08.298Z,-0.50
2018-12-16T06:06:36.786Z,-0.50
2018-12-16T06:09:05.916Z,-0.50
2018-12-16T06:11:34.258Z,-0.40
2018-12-16T06:14:02.558Z,-0.40
2018-12-16T06:16:30.874Z,-0.40
2018-12-16T06:18:59.199Z,-0.40
2018-12-16T06:21:27.599Z,-0.40
2018-12-16T06:23:55.996Z,-0.40
2018-12-16T06:26:24.378Z,-0.40
2018-12-16T06:28:52.680Z,-0.40
2018-12-16T06:31:21.031Z,-0.40
2018-12-16T06:33:49.360Z,-0.40
2018-12-16T06:36:17.762Z,-0.40
2018-12-16T06:38:46.057Z,-0.40
2018-12-16T06:41:14.378Z,-0.40
2018-12-16T06:43:42.695Z,-0.40
2018-12-16T06:46:11.014Z,-0.30
2018-12-16T06:48:39.450Z,-0.30
2018-12-16T06:51:07.833Z,-0.30
2018-12-16T06:53:36.134Z,-0.30
2018-12-16T06:56:06.702Z,-0.30
2018-12-16T06:58:34.846Z,-0.30
2018-12-16T07:01:03.161Z,-0.30
2018-12-16T07:03:31.467Z,-0.30
2018-12-16T07:05:59.777Z,-0.30
2018-12-16T07:08:28.064Z,-0.30
2018-12-16T07:10:56.366Z,-0.30
2018-12-16T07:13:24.674Z,-0.30
2018-12-16T07:15:52.919Z,-0.30
2018-12-16T07:18:21.270Z,-0.30
2018-12-16T07:20:49.594Z,-0.30
2018-12-16T07:23:18.000Z,-0.40
2018-12-16T07:25:46.320Z,-0.40
2018-12-16T07:28:14.662Z,-0.50
2018-12-16T07:30:43.008Z,-0.50
2018-12-16T07:33:11.329Z,-0.60
2018-12-16T07:35:39.739Z,-0.60
2018-12-16T07:38:08.023Z,-0.70
2018-12-16T07:40:36.423Z,-0.70
2018-12-16T07:43:05.833Z,-0.70
2018-12-16T07:45:34.393Z,-0.70
2018-12-16T07:48:02.895Z,-0.80
2018-12-16T07:50:33.960Z,-0.80
2018-12-16T07:53:02.502Z,-0.90
2018-12-16T07:55:30.822Z,-0.90
2018-12-16T07:58:01.810Z,-1.00
2018-12-16T08:00:30.497Z,-1.00
2018-12-16T08:03:00.968Z,-1.00
2018-12-16T08:05:29.316Z,-1.10
2018-12-16T08:07:57.708Z,-1.20
2018-12-16T08:10:27.057Z,-1.20
2018-12-16T08:12:55.315Z,-1.30
2018-12-16T08:15:23.568Z,-1.40
2018-12-16T08:17:51.888Z,-1.40
2018-12-16T08:20:20.160Z,-1.40
2018-12-16T08:22:48.500Z,-1.40
2018-12-16T08:25:16.812Z,-1.50
2018-12-16T08:27:45.103Z,-1.50
2018-12-16T08:30:13.613Z,-1.50
2018-12-16T08:32:41.893Z,-1.50
2018-12-16T08:35:10.156Z,-1.50
2018-12-16T08:37:38.423Z,-1.50
2018-12-16T08:40:07.625Z,-1.50
2018-12-16T08:42:35.925Z,-1.50
2018-12-16T08:45:05.780Z,-1.50
2018-12-16T08:47:34.063Z,-1.40
2018-12-16T08:50:02.522Z,-1.40
2018-12-16T08:52:30.828Z,-1.30
2018-12-16T08:54:59.178Z,-1.30
2018-12-16T08:57:27.621Z,-1.20
2018-12-16T08:59:56.727Z,-1.20
2018-12-16T09:02:25.230Z,-1.20
2018-12-16T09:04:54.406Z,-1.20
2018-12-16T09:07:23.075Z,-1.20
2018-12-16T09:09:51.405Z,-1.20
2018-12-16T09:12:19.889Z,-1.20
2018-12-16T09:14:48.227Z,-1.20
2018-12-16T09:17:16.611Z,-1.20
2018-12-16T09:19:45.049Z,-1.20
2018-12-16T09:22:13.963Z,-1.20
2018-12-16T09:24:42.256Z,-1.10
2018-12-16T09:27:10.935Z,-1.10
2018-12-16T09:29:39.232Z,-1.10
2018-12-16T09:32:07.743Z,-1.10
2018-12-16T09:34:36.142Z,-1.00
2018-12-16T09:37:04.430Z,-1.00
2018-12-16T09:39:32.824Z,-1.00
2018-12-16T09:42:01.167Z,-1.00
2018-12-16T09:44:29.650Z,-1.00
2018-12-16T09:46:58.112Z,-1.00
2018-12-16T09:49:33.023Z,-1.00
2018-12-16T09:52:01.418Z,-1.00
2018-12-16T09:54:29.839Z,-1.00
2018-12-16T09:56:58.223Z,-1.00
2018-12-16T09:59:27.368Z,-1.00
2018-12-16T10:01:55.711Z,-1.00
2018-12-16T10:04:24.009Z,-1.10
2018-12-16T10:06:52.334Z,-1.10
2018-12-16T10:09:20.712Z,-1.00
2018-12-16T10:11:49.099Z,-1.10
2018-12-16T10:14:17.722Z,-1.10
2018-12-16T10:16:46.198Z,-1.00
2018-12-16T10:19:14.525Z,-1.00
2018-12-16T10:21:42.963Z,-0.90
2018-12-16T10:24:11.248Z,-0.90
2018-12-16T10:26:39.781Z,-0.80
2018-12-16T10:29:08.185Z,-0.80
2018-12-16T10:31:36.589Z,-0.70
2018-12-16T10:34:05.036Z,-0.70
2018-12-16T10:36:33.368Z,-0.60
2018-12-16T10:39:02.015Z,-0.60
2018-12-16T10:41:30.616Z,-0.50
2018-12-16T10:43:58.958Z,-0.50
2018-12-16T10:46:27.260Z,-0.40
2018-12-16T10:48:55.712Z,-0.30
2018-12-16T10:51:24.037Z,-0.30
2018-12-16T10:53:52.434Z,-0.30
2018-12-16T10:56:20.721Z,-0.20
2018-12-16T10:58:49.019Z,-0.20
2018-12-16T11:01:22.833Z,-0.20
2018-12-16T11:03:51.288Z,-0.20
2018-12-16T11:06:19.853Z,-0.30
2018-12-16T11:08:48.730Z,-0.20
2018-12-16T11:11:17.102Z,-0.30
2018-12-16T11:13:45.696Z,-0.20
2018-12-16T11:16:13.991Z,-0.30
2018-12-16T11:18:42.397Z,-0.20
2018-12-16T11:21:10.849Z,-0.20
2018-12-16T11:23:39.089Z,-0.20
2018-12-16T11:26:07.915Z,-0.10
2018-12-16T11:28:36.278Z,-0.10
2018-12-16T11:31:04.598Z,0.00
2018-12-16T11:33:32.960Z,0.00
2018-12-16T11:36:01.308Z,0.00
2018-12-16T11:38:29.658Z,0.10
2018-12-16T11:40:58.215Z,0.10
2018-12-16T11:43:26.768Z,0.10
2018-12-16T11:45:55.058Z,0.10
2018-12-16T11:48:23.373Z,0.10
2018-12-16T11:50:51.635Z,0.10
2018-12-16T11:53:19.964Z,0.00
2018-12-16T11:55:48.313Z,0.10
2018-12-16T11:58:16.775Z,0.00
2018-12-16T12:00:45.102Z,0.00
2018-12-16T12:03:13.356Z,0.10
2018-12-16T12:05:41.812Z,0.10
2018-12-16T12:08:10.111Z,0.10
2018-12-16T12:10:40.456Z,0.10
2018-12-16T12:13:08.802Z,0.10
2018-12-16T12:15:37.212Z,0.10
2018-12-16T12:18:05.518Z,0.10
2018-12-16T12:20:33.940Z,0.10
2018-12-16T12:23:02.205Z,0.00
2018-12-16T12:25:31.427Z,0.00
2018-12-16T12:27:59.963Z,0.00
2018-12-16T12:30:28.237Z,0.00
2018-12-16T12:32:56.519Z,0.10
2018-12-16T12:35:24.910Z,0.10
2018-12-16T12:37:53.188Z,0.20
2018-12-16T12:40:21.490Z,0.20
2018-12-16T12:42:49.835Z,0.30
2018-12-16T12:45:18.124Z,0.40
2018-12-16T12:47:46.499Z,0.40
2018-12-16T12:50:14.771Z,0.50
2018-12-16T12:52:43.515Z,0.50
2018-12-16T12:55:11.829Z,0.50
2018-12-16T12:57:40.525Z,0.60
2018-12-16T13:00:12.291Z,0.50
2018-12-16T13:02:41.843Z,0.60
2018-12-16T13:05:10.277Z,0.60
2018-12-16T13:07:39.021Z,0.60
2018-12-16T13:10:09.750Z,0.60
2018-12-16T13:12:38.582Z,0.60
2018-12-16T13:15:07.163Z,0.50
2018-12-16T13:17:35.584Z,0.50
2018-12-16T13:20:04.384Z,0.50
2018-12-16T13:22:32.751Z,0.40
2018-12-16T13:25:12.275Z,0.40
2018-12-16T13:27:41.249Z,0.40
2018-12-16T13:30:09.530Z,0.40
2018-12-16T13:32:37.874Z,0.50
2018-12-16T13:35:06.433Z,0.50
2018-12-16T13:37:34.759Z,0.60
2018-12-16T13:40:03.211Z,0.70
2018-12-16T13:42:31.598Z,0.80
2018-12-16T13:44:59.863Z,0.80
2018-12-16T13:47:28.147Z,0.80
2018-12-16T13:49:56.421Z,0.80
2018-12-16T13:52:24.708Z,0.70
2018-12-16T13:54:53.322Z,0.60
2018-12-16T13:57:21.688Z,0.60
2018-12-16T13:59:50.086Z,0.50
2018-12-16T14:02:18.405Z,0.50
2018-12-16T14:04:47.098Z,0.50
2018-12-16T14:07:15.426Z,0.40
2018-12-16T14:09:43.769Z,0.40
2018-12-16T14:12:12.061Z,0.40
2018-12-16T14:14:40.704Z,0.40
2018-12-16T14:17:09.028Z,0.40
2018-12-16T14:19:37.410Z,0.40
2018-12-16T14:22:05.700Z,0.30
2018-12-16T14:24:34.012Z,0.30
2018-12-16T14:27:02.404Z,0.30
2018-12-16T14:29:30.755Z,0.30
2018-12-16T14:31:59.045Z,0.30
2018-12-16T14:34:27.424Z,0.30
2018-12-16T14:36:55.714Z,0.30
2018-12-16T14:39:23.992Z,0.20
2018-12-16T14:41:52.573Z,0.20
2018-12-16T14:44:20.947Z,0.30
2018-12-16T14:46:49.253Z,0.20
2018-12-16T14:49:17.624Z,0.30
2018-12-16T14:51:46.047Z,0.20
2018-12-16T14:54:14.666Z,0.20
2018-12-16T14:56:43.196Z,0.20
2018-12-16T14:59:11.452Z,0.20
2018-12-16T15:01:39.784Z,0.20
2018-12-16T15:04:08.092Z,0.20
2018-12-16T15:06:36.381Z,0.20
2018-12-16T15:09:06.977Z,0.20
2018-12-16T15:11:35.267Z,0.20
2018-12-16T15:14:03.786Z,0.20
2018-12-16T15:16:32.220Z,0.20
2018-12-16T15:19:00.573Z,0.20
2018-12-16T15:21:28.963Z,0.20
2018-12-16T15:23:57.330Z,0.20
2018-12-16T15:26:25.687Z,0.30
2018-12-16T15:28:54.449Z,0.30
2018-12-16T15:34:01.811Z,0.30
2018-12-16T15:36:33.239Z,0.30
2018-12-16T15:39:01.494Z,0.30
2018-12-16T15:41:29.963Z,0.30
2018-12-16T15:43:58.376Z,0.30
2018-12-16T15:46:26.815Z,0.30
2018-12-16T15:48:55.081Z,0.30
2018-12-16T15:51:23.369Z,0.30
2018-12-16T15:53:51.726Z,0.30
2018-12-16T15:56:21.654Z,0.30
2018-12-16T15:58:50.246Z,0.30
2018-12-16T16:01:18.555Z,0.30
2018-12-16T16:03:46.984Z,0.40
2018-12-16T16:06:15.284Z,0.40
2018-12-16T16:08:43.594Z,0.40
2018-12-16T16:11:11.932Z,0.40
2018-12-16T16:13:40.204Z,0.50
2018-12-16T16:16:08.497Z,0.50
2018-12-16T16:18:37.168Z,0.50
2018-12-16T16:21:05.765Z,0.50
2018-12-16T16:23:34.051Z,0.50
2018-12-16T16:26:02.327Z,0.50
2018-12-16T16:28:30.632Z,0.50
2018-12-16T16:30:58.968Z,0.50
2018-12-16T16:33:27.359Z,0.50
2018-12-16T16:35:55.690Z,0.50
2018-12-16T16:38:24.118Z,0.50
2018-12-16T16:40:53.110Z,0.50
2018-12-16T16:43:21.423Z,0.50
2018-12-16T16:45:49.900Z,0.50
2018-12-16T16:48:18.480Z,0.50
2018-12-16T16:50:46.879Z,0.50
2018-12-16T16:53:15.163Z,0.50
2018-12-16T16:55:43.450Z,0.50
2018-12-16T16:58:11.982Z,0.50
2018-12-16T17:00:40.951Z,0.50
2018-12-16T17:05:47.956Z,0.50
2018-12-16T17:08:16.412Z,0.60
2018-12-16T17:10:44.748Z,0.60
2018-12-16T17:13:13.228Z,0.60
2018-12-16T17:15:47.759Z,0.60
2018-12-16T17:18:16.315Z,0.60
2018-12-16T17:20:44.651Z,0.60
2018-12-16T17:23:13.162Z,0.60
2018-12-16T17:25:48.036Z,0.60
2018-12-16T17:28:11.857Z,0.60
2018-12-16T17:30:40.356Z,0.60
2018-12-16T17:33:09.336Z,0.70
2018-12-16T17:35:37.605Z,0.70
2018-12-16T17:38:06.161Z,0.70
2018-12-16T17:40:34.456Z,0.70
2018-12-16T17:43:03.238Z,0.70
2018-12-16T17:45:31.549Z,0.70
2018-12-16T17:47:59.899Z,0.80
2018-12-16T17:50:28.182Z,0.80
2018-12-16T17:52:56.611Z,0.80
2018-12-16T17:55:24.955Z,0.80
2018-12-16T17:57:53.611Z,0.80
2018-12-16T18:00:22.843Z,0.80
2018-12-16T18:02:51.196Z,0.80
2018-12-16T18:05:20.019Z,0.80
2018-12-16T18:07:48.450Z,0.80
2018-12-16T18:10:16.988Z,0.80
2018-12-16T18:12:45.236Z,0.80
2018-12-16T18:15:13.872Z,0.80
2018-12-16T18:17:42.196Z,0.80
2018-12-16T18:20:11.003Z,0.80
2018-12-16T18:22:39.316Z,0.80
2018-12-16T18:25:07.963Z,0.80
2018-12-16T18:27:36.670Z,0.80
2018-12-16T18:30:07.260Z,0.80
2018-12-16T18:32:35.734Z,0.90
2018-12-16T18:35:04.414Z,0.90
2018-12-16T18:37:32.966Z,0.90
2018-12-16T18:40:01.422Z,0.90
2018-12-16T18:42:30.194Z,0.90
2018-12-16T18:44:58.611Z,0.90
2018-12-16T18:47:27.066Z,0.90
2018-12-16T18:49:55.839Z,0.90
2018-12-16T18:52:24.158Z,0.90
2018-12-16T18:54:52.553Z,0.90
2018-12-16T18:57:20.971Z,0.90
2018-12-16T18:59:49.228Z,0.90
2018-12-16T19:02:17.838Z,0.90
2018-12-16T19:04:46.412Z,0.90
2018-12-16T19:07:14.988Z,0.90
2018-12-16T19:09:43.400Z,0.90
2018-12-16T19:12:11.660Z,1.00
2018-12-16T19:14:40.274Z,1.00
2018-12-16T19:17:08.642Z,0.90
2018-12-16T19:19:37.015Z,0.90
2018-12-16T19:22:05.381Z,0.90
2018-12-16T19:24:33.654Z,0.90
2018-12-16T19:27:02.006Z,1.00
2018-12-16T19:29:30.356Z,0.90
2018-12-16T19:31:58.651Z,0.90
2018-12-16T19:34:26.970Z,1.00
2018-12-16T19:36:55.273Z,1.00
2018-12-16T19:39:23.619Z,1.00
2018-12-16T19:41:51.939Z,1.00
2018-12-16T19:44:20.281Z,1.00
2018-12-16T19:46:48.638Z,1.00
2018-12-16T19:49:16.923Z,1.00
2018-12-16T19:51:45.383Z,1.00
2018-12-16T19:54:13.746Z,1.00
2018-12-16T19:56:42.041Z,1.10
2018-12-16T19:59:10.296Z,1.10
2018-12-16T20:01:38.635Z,1.00
2018-12-16T20:04:12.218Z,1.00
2018-12-16T20:06:44.453Z,1.00
2018-12-16T20:09:12.909Z,1.10
2018-12-16T20:11:41.282Z,1.10
2018-12-16T20:14:09.687Z,1.10
2018-12-16T20:16:38.257Z,1.10
2018-12-16T20:19:06.933Z,1.00
2018-12-16T20:21:35.238Z,1.00
2018-12-16T20:24:03.617Z,1.00
2018-12-16T20:26:31.909Z,1.00
2018-12-16T20:29:00.560Z,0.90
2018-12-16T20:31:28.848Z,0.90
2018-12-16T20:33:57.324Z,0.90
2018-12-16T20:36:25.610Z,0.90
2018-12-16T20:38:53.880Z,0.90
2018-12-16T20:41:22.142Z,0.90
2018-12-16T20:43:50.467Z,0.90
2018-12-16T20:46:18.694Z,0.90
2018-12-16T20:48:47.129Z,0.90
2018-12-16T20:51:15.432Z,0.90
2018-12-16T20:53:43.847Z,0.90
2018-12-16T20:56:12.131Z,0.90
2018-12-16T20:58:40.649Z,0.90
2018-12-16T21:01:08.928Z,0.90
2018-12-16T21:03:37.279Z,0.90
2018-12-16T21:06:05.631Z,0.90
2018-12-16T21:08:34.312Z,0.90
2018-12-16T21:11:07.998Z,0.90
2018-12-16T21:13:41.599Z,1.00
2018-12-16T21:16:15.806Z,1.00
2018-12-16T21:18:44.618Z,1.00
2018-12-16T21:21:12.918Z,1.00
2018-12-16T21:23:41.191Z,1.00
2018-12-16T21:26:09.482Z,1.00
2018-12-16T21:28:37.838Z,1.00
2018-12-16T21:31:06.190Z,1.00
2018-12-16T21:33:34.594Z,1.00
2018-12-16T21:36:03.126Z,1.00
2018-12-16T21:38:31.447Z,1.00
2018-12-16T21:40:59.751Z,1.00
2018-12-16T21:43:28.038Z,1.00
2018-12-16T21:45:56.368Z,1.00
2018-12-16T21:48:25.586Z,1.00
2018-12-16T21:50:53.938Z,1.10
2018-12-16T21:53:22.394Z,1.10
2018-12-16T21:55:50.756Z,1.20
2018-12-16T21:58:19.118Z,1.20
2018-12-16T22:00:47.390Z,1.30
2018-12-16T22:03:15.708Z,1.30
2018-12-16T22:05:44.006Z,1.30
2018-12-16T22:08:12.303Z,1.30
2018-12-16T22:10:40.646Z,1.30
2018-12-16T22:13:08.926Z,1.30
2018-12-16T22:15:37.231Z,1.30
2018-12-16T22:18:05.613Z,1.30
2018-12-16T22:20:33.908Z,1.30
2018-12-16T22:23:02.185Z,1.20
2018-12-16T22:25:30.467Z,1.20
2018-12-16T22:27:58.758Z,1.20
2018-12-16T22:30:27.090Z,1.20
2018-12-16T22:32:55.351Z,1.20
2018-12-16T22:35:23.640Z,1.30
2018-12-16T22:37:51.896Z,1.30
2018-12-16T22:40:20.469Z,1.30
2018-12-16T22:42:48.735Z,1.30
2018-12-16T22:45:17.100Z,1.30
2018-12-16T22:47:45.404Z,1.30
2018-12-16T22:50:13.760Z,1.40
2018-12-16T22:52:42.051Z,1.40
2018-12-16T22:55:10.360Z,1.40
2018-12-16T22:57:38.660Z,1.40
2018-12-16T23:00:10.715Z,1.40
2018-12-16T23:02:39.190Z,1.40
2018-12-16T23:05:07.710Z,1.40
2018-12-16T23:07:36.067Z,1.40
2018-12-16T23:10:04.523Z,1.40
2018-12-16T23:12:34.237Z,1.50
2018-12-16T23:15:02.822Z,1.50
2018-12-16T23:17:31.911Z,1.50
2018-12-16T23:20:05.470Z,1.60
2018-12-16T23:22:33.788Z,1.50
2018-12-16T23:25:02.367Z,1.60
2018-12-16T23:27:30.805Z,1.60
2018-12-16T23:29:59.104Z,1.60
2018-12-16T23:32:27.393Z,1.60
2018-12-16T23:34:55.695Z,1.60
2018-12-16T23:37:24.055Z,1.60
2018-12-16T23:39:52.326Z,1.60
2018-12-16T23:42:20.636Z,1.70
2018-12-16T23:44:49.022Z,1.70
2018-12-16T23:47:17.470Z,1.70
2018-12-16T23:49:45.779Z,1.70
2018-12-16T23:52:14.162Z,1.70
2018-12-16T23:54:42.451Z,1.70
2018-12-16T23:57:10.760Z,1.80
2018-12-16T23:59:39.091Z,1.80
